Time;durP1;ratioP1;P1;durP2;ratioP2;P2;SDS_P1;SDS_P2;PMS_P1;PMS_P2;Temp;Humidity;BMP_temperature;BMP_pressure;BME280_temperature;BME280_humidity;BME280_pressure;Samples;Min_cycle;Max_cycle;Signal;HPM_P1;HPM_P2
2021/06/09 00:01:13;;;;;;;14.05;12.25;;;;;;;15.49;91.34;98982.94;5024854;28;20022;-86
2021/06/09 00:03:39;;;;;;;17.02;13.75;;;;;;;15.53;90.92;98992.53;5025866;28;20276;-86
2021/06/09 00:06:04;;;;;;;18.75;13.90;;;;;;;15.50;90.32;98992.63;5025824;28;20065;-86
2021/06/09 00:08:30;;;;;;;16.85;12.95;;;;;;;15.44;90.58;98994.63;5024567;28;20025;-86
2021/06/09 00:10:56;;;;;;;21.58;15.68;;;;;;;15.38;90.92;98992.19;5025891;28;20089;-86
2021/06/09 00:13:29;;;;;;;17.73;12.93;;;;;;;15.38;90.88;98990.41;5024362;28;20018;-86
2021/06/09 00:15:56;;;;;;;28.23;13.45;;;;;;;15.23;90.94;98988.22;5024375;28;20024;-86
2021/06/09 00:18:22;;;;;;;28.45;12.80;;;;;;;15.29;91.26;98992.44;5024165;28;20056;-86
2021/06/09 00:20:48;;;;;;;51.85;12.73;;;;;;;15.29;90.85;98993.31;5020349;28;20305;-86
2021/06/09 00:23:17;;;;;;;28.88;11.43;;;;;;;15.23;91.10;98999.66;5020976;28;20022;-86
2021/06/09 00:25:48;;;;;;;16.38;11.38;;;;;;;15.23;91.28;99003.25;5022806;28;20029;-86
2021/06/09 00:28:14;;;;;;;19.13;11.85;;;;;;;15.17;91.67;99001.66;5024267;28;20233;-86
2021/06/09 00:30:40;;;;;;;270.15;15.73;;;;;;;14.84;90.46;99000.06;5023789;28;20025;-86
2021/06/09 00:33:05;;;;;;;188.07;14.35;;;;;;;14.71;91.02;99010.16;5023780;28;20034;-86
2021/06/09 00:35:31;;;;;;;64.50;14.13;;;;;;;14.65;92.08;99004.19;5024171;28;20253;-86
2021/06/09 00:37:56;;;;;;;48.03;11.98;;;;;;;14.74;92.12;99014.47;5024996;28;20063;-86
2021/06/09 00:40:22;;;;;;;28.30;12.73;;;;;;;14.66;92.05;99011.22;5023533;28;20017;-86
2021/06/09 00:43:12;;;;;;;14.25;12.65;;;;;;;14.75;92.63;99016.25;5024643;28;20022;-86
2021/06/09 00:45:48;;;;;;;16.77;13.38;;;;;;;14.76;92.27;99015.31;5023560;28;20053;-85
2021/06/09 00:48:14;;;;;;;14.57;12.75;;;;;;;14.71;91.65;99007.50;5021254;28;20025;-85
2021/06/09 00:50:41;;;;;;;14.60;11.30;;;;;;;14.67;91.27;99013.81;5039209;28;20032;-85
2021/06/09 00:55:52;;;;;;;12.90;11.52;;;;;;;14.59;91.15;99014.97;5024988;28;20036;-86
2021/06/09 00:58:18;;;;;;;14.80;12.73;;;;;;;14.58;91.54;99013.19;5024825;28;20025;-85
2021/06/09 01:00:44;;;;;;;15.05;12.57;;;;;;;14.62;91.53;99009.56;5024613;28;20213;-87
2021/06/09 01:03:09;;;;;;;15.13;11.45;;;;;;;14.65;91.49;99014.78;5018749;22;20351;-87
2021/06/09 01:05:35;;;;;;;12.90;11.50;;;;;;;14.73;91.25;99018.06;5003998;28;20026;-87
2021/06/09 01:08:06;;;;;;;25.05;10.98;;;;;;;14.78;91.11;99018.81;5003942;28;20346;-87
2021/06/09 01:10:31;;;;;;;26.42;11.32;;;;;;;14.81;90.86;99021.38;5003290;28;20018;-87
2021/06/09 01:12:58;;;;;;;18.52;11.02;;;;;;;14.68;90.75;99020.00;5003999;28;20280;-87
2021/06/09 01:15:25;;;;;;;16.15;11.80;;;;;;;14.65;91.17;99012.13;5004913;28;20026;-87
2021/06/09 01:17:51;;;;;;;12.40;10.85;;;;;;;14.66;91.70;99016.50;5020188;28;20026;-87
2021/06/09 01:20:17;;;;;;;10.40;9.40;;;;;;;14.71;90.63;99007.50;5003637;28;20096;-87
2021/06/09 01:22:42;;;;;;;96.00;13.35;;;;;;;14.69;91.22;99008.47;5020041;28;20022;-87
2021/06/09 01:25:09;;;;;;;78.70;13.20;;;;;;;14.56;91.28;99007.09;5003770;28;20026;-87
2021/06/09 01:27:36;;;;;;;61.50;12.80;;;;;;;14.53;91.49;99008.03;5019687;28;20321;-87
2021/06/09 01:30:05;;;;;;;35.55;12.90;;;;;;;14.53;91.70;99009.84;5004072;28;20030;-87
2021/06/09 01:32:31;;;;;;;18.90;12.40;;;;;;;14.61;91.64;99007.81;5004461;28;20256;-87
2021/06/09 01:34:56;;;;;;;25.63;12.25;;;;;;;14.67;91.51;99007.63;5019834;28;20093;-87
2021/06/09 01:37:22;;;;;;;28.08;12.45;;;;;;;14.70;91.68;99015.50;5019764;28;20313;-87
2021/06/09 01:39:47;;;;;;;41.58;13.00;;;;;;;14.70;91.35;99018.16;5003427;28;20026;-87
2021/06/09 01:42:13;;;;;;;114.25;15.02;;;;;;;14.74;91.64;99014.47;5019835;28;20022;-87
2021/06/09 01:44:41;;;;;;;79.55;14.45;;;;;;;14.73;91.91;99013.63;5000380;28;20080;-87
2021/06/09 01:47:07;;;;;;;116.03;15.65;;;;;;;14.70;91.72;99012.84;4999108;28;20072;-86
2021/06/09 01:49:33;;;;;;;48.55;14.45;;;;;;;14.71;92.01;99004.84;5004436;28;20026;-86
2021/06/09 01:51:59;;;;;;;29.00;14.25;;;;;;;14.73;92.11;99003.03;5003404;28;20209;-87
2021/06/09 01:54:24;;;;;;;61.25;14.68;;;;;;;14.78;91.99;99005.56;5004301;28;20022;-87
2021/06/09 01:56:54;;;;;;;30.02;14.85;;;;;;;14.84;91.76;99008.03;5003240;28;20349;-87
2021/06/09 01:59:20;;;;;;;48.90;15.38;;;;;;;14.91;92.11;99006.91;5004213;28;20032;-87
2021/06/09 02:01:48;;;;;;;58.15;15.93;;;;;;;14.90;92.31;98997.19;5002933;28;20037;-87
2021/06/09 02:04:14;;;;;;;74.72;16.30;;;;;;;14.89;92.45;98999.00;4994597;28;20046;-87
2021/06/09 02:06:41;;;;;;;23.73;14.32;;;;;;;14.91;92.59;98996.31;4999980;28;20026;-87
2021/06/09 02:09:10;;;;;;;33.40;14.48;;;;;;;14.83;92.64;98995.66;5003503;28;20026;-87
2021/06/09 02:11:41;;;;;;;24.38;14.25;;;;;;;14.83;92.34;98987.72;5003507;28;20022;-87
2021/06/09 02:14:08;;;;;;;20.40;13.68;;;;;;;14.89;92.54;98993.72;5004683;28;20026;-87
2021/06/09 02:16:38;;;;;;;18.15;11.88;;;;;;;14.88;92.12;98985.81;5004581;28;20097;-87
2021/06/09 02:19:05;;;;;;;14.40;12.18;;;;;;;14.87;91.82;98992.00;5003752;28;20053;-87
2021/06/09 02:21:33;;;;;;;13.45;11.98;;;;;;;14.81;91.99;98994.84;5003396;28;20022;-87
2021/06/09 02:23:59;;;;;;;15.65;13.18;;;;;;;14.76;91.85;98986.16;4998929;28;20034;-87
2021/06/09 02:26:26;;;;;;;17.02;13.70;;;;;;;14.80;92.06;98991.34;4999816;28;20067;-87
2021/06/09 02:28:52;;;;;;;14.82;12.23;;;;;;;14.84;91.96;98989.47;4999469;28;20026;-87
2021/06/09 02:31:18;;;;;;;14.10;12.50;;;;;;;14.95;91.75;98992.63;4987771;28;20018;-87
2021/06/09 02:33:44;;;;;;;13.40;12.00;;;;;;;15.01;91.44;98998.63;4988347;28;20046;-87
2021/06/09 02:36:10;;;;;;;13.18;11.35;;;;;;;15.04;91.33;98992.34;4987353;28;20015;-87
2021/06/09 02:38:36;;;;;;;13.50;12.10;;;;;;;15.09;91.21;98990.41;4987191;28;20082;-87
2021/06/09 02:41:02;;;;;;;13.32;11.30;;;;;;;15.05;90.95;98988.78;4991611;28;20029;-87
2021/06/09 02:43:32;;;;;;;11.65;10.40;;;;;;;15.09;91.13;98990.41;4990043;28;20238;-87
2021/06/09 02:46:15;;;;;;;12.43;11.13;;;;;;;15.08;90.61;98994.00;4987662;28;20019;-87
2021/06/09 02:48:44;;;;;;;14.23;12.45;;;;;;;14.99;91.18;98988.97;4987572;28;20026;-87
2021/06/09 02:51:14;;;;;;;15.23;13.13;;;;;;;14.94;90.98;98991.75;5003857;28;20023;-87
2021/06/09 02:53:51;;;;;;;17.55;12.05;;;;;;;14.98;91.25;98992.53;4987588;28;20094;-87
2021/06/09 02:56:41;;;;;;;12.48;11.13;;;;;;;15.02;91.37;98999.47;4987574;28;20026;-87
2021/06/09 02:59:41;;;;;;;12.77;11.35;;;;;;;15.14;90.90;98999.97;4987368;28;20045;-87
2021/06/09 03:02:21;;;;;;;12.65;11.35;;;;;;;15.19;90.60;98998.03;4990596;28;20043;-87
2021/06/09 03:04:54;;;;;;;15.60;11.85;;;;;;;15.27;90.98;98997.78;4991967;28;20221;-87
2021/06/09 03:07:28;;;;;;;13.30;11.90;;;;;;;15.28;90.67;98996.88;5009087;28;20022;-87
2021/06/09 03:10:20;;;;;;;12.60;11.32;;;;;;;15.17;90.93;99001.66;5001755;28;20034;-87
2021/06/09 03:12:51;;;;;;;14.25;12.68;;;;;;;15.15;91.19;99001.69;5000614;28;20050;-87
2021/06/09 03:15:52;;;;;;;17.00;11.10;;;;;;;15.12;90.96;98995.63;4999912;28;20018;-87
2021/06/09 03:18:23;;;;;;;15.25;12.80;;;;;;;15.10;91.01;99002.78;5000364;28;20371;-87
2021/06/09 03:21:03;;;;;;;15.98;12.80;;;;;;;15.19;90.88;99002.50;5001951;28;20093;-87
2021/06/09 03:23:59;;;;;;;14.60;12.93;;;;;;;15.16;90.74;99002.59;5003053;28;20018;-87
2021/06/09 03:26:46;;;;;;;16.52;12.57;;;;;;;15.16;90.66;99005.22;4992982;28;20019;-87
2021/06/09 03:29:23;;;;;;;16.17;13.20;;;;;;;15.15;91.25;99006.13;4988075;28;20035;-87
2021/06/09 03:31:57;;;;;;;15.75;13.23;;;;;;;15.15;91.34;99001.69;4986939;28;20022;-87
2021/06/09 03:34:26;;;;;;;13.45;11.70;;;;;;;15.24;90.98;99000.53;4988000;28;20085;-87
2021/06/09 03:36:55;;;;;;;14.57;11.95;;;;;;;15.32;90.80;99001.19;4988184;28;20050;-87
2021/06/09 03:39:23;;;;;;;20.48;12.23;;;;;;;15.36;90.66;98999.28;4986740;28;20026;-87
2021/06/09 03:41:52;;;;;;;12.60;11.20;;;;;;;15.43;90.42;98996.41;4986698;28;20061;-87
2021/06/09 03:44:25;;;;;;;16.65;12.35;;;;;;;15.41;90.57;98992.94;4986666;28;20098;-87
2021/06/09 03:46:52;;;;;;;15.05;13.48;;;;;;;15.35;90.92;98993.13;4992263;28;20041;-87
2021/06/09 03:49:19;;;;;;;14.25;12.55;;;;;;;15.30;91.35;98995.03;5002538;28;20025;-87
2021/06/09 03:51:46;;;;;;;13.13;11.65;;;;;;;15.31;91.17;98986.16;5001286;28;20048;-86
2021/06/09 03:54:12;;;;;;;13.40;11.85;;;;;;;15.28;90.95;98994.22;5002969;28;20069;-86
2021/06/09 03:56:42;;;;;;;14.38;12.88;;;;;;;15.29;91.25;98998.63;5001210;28;20026;-86
2021/06/09 03:59:10;;;;;;;15.25;11.57;;;;;;;15.36;90.97;99000.16;5003893;28;20085;-86
2021/06/09 04:01:40;;;;;;;12.13;10.57;;;;;;;15.36;90.39;98992.19;4989828;28;20346;-87
2021/06/09 04:04:07;;;;;;;15.18;10.93;;;;;;;15.41;90.20;98998.22;4990099;28;20061;-87
2021/06/09 04:06:40;;;;;;;18.10;12.40;;;;;;;15.32;90.50;98993.22;4990811;28;20019;-90
2021/06/09 04:09:06;;;;;;;15.57;12.55;;;;;;;15.26;90.97;98992.53;4999990;28;20085;-90
2021/06/09 04:11:33;;;;;;;17.60;12.07;;;;;;;15.33;90.83;98989.63;4997731;28;20333;-90
2021/06/09 04:14:01;;;;;;;22.63;12.80;;;;;;;15.31;90.78;98991.47;5000786;28;20073;-90
2021/06/09 04:16:31;;;;;;;14.50;13.07;;;;;;;15.29;90.94;98997.75;5001245;28;20065;-90
2021/06/09 04:18:59;;;;;;;15.52;12.48;;;;;;;15.28;91.23;98986.25;4993795;28;20026;-90
2021/06/09 04:21:26;;;;;;;16.65;12.63;;;;;;;15.34;91.19;98986.06;5005250;28;20386;-90
2021/06/09 04:23:52;;;;;;;18.67;11.88;;;;;;;15.35;91.28;98993.13;4994289;28;20097;-90
2021/06/09 04:26:19;;;;;;;14.30;12.85;;;;;;;15.32;91.30;98993.22;4993452;28;20380;-90
2021/06/09 04:28:51;;;;;;;20.83;13.00;;;;;;;15.27;91.23;98984.53;4996855;28;20073;-91
2021/06/09 04:31:19;;;;;;;;;;;;;;;15.40;91.30;98993.84;4998375;28;20030;-92
2021/06/09 04:33:57;;;;;;;16.67;13.30;;;;;;;15.36;90.92;98976.28;4998154;28;19905;-92
2021/06/09 04:36:31;;;;;;;16.10;12.88;;;;;;;15.33;91.02;98980.81;4994040;28;20030;-92
2021/06/09 04:41:32;;;;;;;14.98;12.50;;;;;;;15.44;90.59;98998.13;5039499;28;20045;-64
2021/06/09 04:43:57;;;;;;;16.05;13.45;;;;;;;15.45;90.77;98989.28;5040615;28;20241;-64
2021/06/09 04:46:23;;;;;;;18.58;12.90;;;;;;;15.42;90.74;98997.34;5032167;28;20096;-64
2021/06/09 04:49:00;;;;;;;14.70;12.23;;;;;;;15.52;90.51;98998.75;5039730;28;20084;-64
2021/06/09 04:51:31;;;;;;;17.45;12.95;;;;;;;15.65;89.83;98994.78;5045684;28;20205;-64
2021/06/09 04:53:57;;;;;;;16.52;12.25;;;;;;;15.71;89.35;98996.34;5045380;28;20021;-64
2021/06/09 04:56:23;;;;;;;14.73;11.73;;;;;;;15.89;89.18;98993.94;5045308;28;20064;-65
2021/06/09 04:58:48;;;;;;;13.00;11.05;;;;;;;16.08;88.65;99005.66;5045291;28;20029;-65
2021/06/09 05:01:14;;;;;;;13.60;12.20;;;;;;;16.23;89.21;99002.44;5045245;28;20092;-65
2021/06/09 05:03:40;;;;;;;14.57;11.05;;;;;;;16.38;87.78;99007.19;5044268;28;20025;-65
2021/06/09 05:06:05;;;;;;;12.30;11.10;;;;;;;16.52;87.21;99006.72;5045160;28;20087;-65
2021/06/09 05:08:30;;;;;;;12.52;10.95;;;;;;;16.64;86.72;99007.13;5027361;28;20096;-65
2021/06/09 05:10:57;;;;;;;12.50;11.20;;;;;;;16.72;86.90;98999.75;5045023;28;20022;-65
2021/06/09 05:13:31;;;;;;;13.77;10.10;;;;;;;16.70;86.85;99004.25;5045007;28;20217;-65
2021/06/09 05:16:07;;;;;;;13.45;10.00;;;;;;;16.72;86.58;99005.06;5045015;28;20028;-64
2021/06/09 05:18:42;;;;;;;14.40;10.63;;;;;;;16.69;86.51;99018.47;5044919;28;20059;-64
2021/06/09 05:21:08;;;;;;;15.38;10.68;;;;;;;16.45;86.98;99014.03;5044850;28;20024;-64
2021/06/09 05:23:38;;;;;;;14.25;11.10;;;;;;;16.36;87.52;99011.69;5044828;28;20067;-65
2021/06/09 05:26:04;;;;;;;18.58;11.57;;;;;;;16.29;88.04;99015.50;5045051;28;20213;-65
2021/06/09 05:28:34;;;;;;;13.05;11.32;;;;;;;16.75;87.03;99012.91;5044649;28;20034;-65
2021/06/09 05:31:01;;;;;;;13.40;10.25;;;;;;;17.50;84.25;99013.50;5044736;28;20044;-65
2021/06/09 05:33:29;;;;;;;12.93;9.00;;;;;;;18.12;81.25;99011.69;5044872;28;20048;-65
2021/06/09 05:35:56;;;;;;;10.32;8.80;;;;;;;18.00;81.79;99004.25;5044638;28;20108;-65
2021/06/09 05:38:23;;;;;;;9.50;8.50;;;;;;;17.87;82.35;99013.72;5044535;28;20209;-65
2021/06/09 05:40:48;;;;;;;10.68;9.10;;;;;;;17.85;82.48;99020.88;5044251;28;20044;-65
2021/06/09 05:43:21;;;;;;;11.68;9.60;;;;;;;17.87;82.75;99019.88;5044481;28;20021;-65
2021/06/09 05:45:47;;;;;;;10.68;9.57;;;;;;;17.87;82.98;99024.38;5044405;28;20236;-65
2021/06/09 05:48:13;;;;;;;9.98;8.98;;;;;;;17.93;82.90;99018.75;5044299;28;20025;-65
2021/06/09 05:50:38;;;;;;;10.30;9.05;;;;;;;17.94;83.29;99025.84;5044311;28;20021;-65
2021/06/09 05:53:04;;;;;;;12.68;10.98;;;;;;;18.04;83.43;99027.16;5044268;28;20017;-65
2021/06/09 05:55:31;;;;;;;13.15;10.60;;;;;;;18.11;82.85;99017.97;5044278;28;20017;-65
2021/06/09 05:58:02;;;;;;;11.18;10.07;;;;;;;18.30;82.61;99011.78;5044208;28;20136;-65
2021/06/09 06:00:29;;;;;;;11.45;10.30;;;;;;;18.48;82.44;99013.63;5044228;28;20025;-65
2021/06/09 06:02:55;;;;;;;11.55;10.25;;;;;;;18.72;81.81;99006.31;5044212;28;20032;-65
2021/06/09 06:05:22;;;;;;;11.93;10.65;;;;;;;19.17;81.43;99012.16;5044050;28;20025;-65
2021/06/09 06:07:48;;;;;;;12.52;10.18;;;;;;;19.52;79.83;99006.03;5043977;28;20344;-65
2021/06/09 06:10:15;;;;;;;12.27;10.10;;;;;;;20.90;76.23;99004.06;5044104;28;20025;-66
2021/06/09 06:12:41;;;;;;;10.43;8.68;;;;;;;21.97;71.67;98995.22;5044127;28;20057;-65
2021/06/09 06:15:09;;;;;;;10.45;9.25;;;;;;;22.62;69.80;99007.38;5043737;28;20036;-65
2021/06/09 06:17:42;;;;;;;10.45;9.20;;;;;;;22.95;67.70;99003.44;5044188;28;20026;-65
2021/06/09 06:20:16;;;;;;;10.57;8.65;;;;;;;23.52;66.21;98998.84;5043918;28;20056;-65
2021/06/09 06:22:44;;;;;;;9.52;7.32;;;;;;;23.55;65.44;98998.63;5043960;28;20304;-65
2021/06/09 06:25:12;;;;;;;8.65;7.75;;;;;;;23.60;65.46;99001.88;5043863;28;20021;-65
2021/06/09 06:27:38;;;;;;;9.30;8.10;;;;;;;23.45;64.47;99002.91;5043782;28;20029;-65
2021/06/09 06:30:04;;;;;;;11.18;8.48;;;;;;;23.42;64.41;99008.47;5043838;28;20270;-65
2021/06/09 06:32:31;;;;;;;9.68;8.68;;;;;;;22.95;65.20;99002.56;5043815;28;20324;-65
2021/06/09 06:34:57;;;;;;;16.35;8.85;;;;;;;22.40;67.56;99005.09;5043765;28;20033;-63
2021/06/09 06:37:24;;;;;;;11.57;9.55;;;;;;;22.10;69.35;99006.94;5043987;28;20213;-63
2021/06/09 06:39:51;;;;;;;9.48;8.38;;;;;;;21.96;69.72;99014.09;5043526;28;20059;-63
2021/06/09 06:42:18;;;;;;;9.57;8.60;;;;;;;21.94;69.44;99005.25;5043757;28;20076;-63
2021/06/09 06:44:43;;;;;;;14.27;10.15;;;;;;;22.12;70.78;99010.38;5043724;28;20029;-63
2021/06/09 06:47:09;;;;;;;11.52;9.73;;;;;;;22.35;70.38;99011.69;5043586;28;20037;-63
2021/06/09 06:49:38;;;;;;;11.65;8.98;;;;;;;23.50;66.02;99008.81;5043725;28;20331;-63
2021/06/09 06:52:05;;;;;;;11.20;8.32;;;;;;;24.42;62.66;99013.31;5043662;28;20028;-63
2021/06/09 06:54:30;;;;;;;9.80;8.20;;;;;;;24.43;62.98;99005.13;5043889;28;20021;-63
2021/06/09 06:56:56;;;;;;;9.48;8.25;;;;;;;24.89;62.01;99003.66;5043590;28;20197;-63
2021/06/09 06:59:23;;;;;;;9.43;8.43;;;;;;;25.73;58.46;99003.78;5043576;28;20037;-63
2021/06/09 07:01:49;;;;;;;10.15;8.23;;;;;;;26.18;56.15;99013.81;5043580;28;20216;-63
2021/06/09 07:04:16;;;;;;;9.45;8.45;;;;;;;26.01;55.92;99011.56;5043553;28;20030;-63
2021/06/09 07:06:44;;;;;;;9.65;8.05;;;;;;;26.30;54.14;99011.06;5043447;28;20025;-63
2021/06/09 07:09:10;;;;;;;11.07;7.80;;;;;;;26.32;55.76;99016.34;5043702;28;20025;-63
2021/06/09 07:11:38;;;;;;;9.48;7.63;;;;;;;26.27;54.38;99014.00;5043484;28;20052;-63
2021/06/09 07:14:05;;;;;;;10.18;7.60;;;;;;;26.01;55.33;99016.94;5043705;28;20060;-63
2021/06/09 07:16:34;;;;;;;11.02;7.55;;;;;;;26.77;54.55;99010.06;5043412;28;20029;-63
2021/06/09 07:19:01;;;;;;;8.90;8.00;;;;;;;26.81;50.92;99017.81;5043448;28;20068;-63
2021/06/09 07:21:27;;;;;;;9.82;7.53;;;;;;;27.11;51.57;99017.19;5043440;28;20026;-63
2021/06/09 07:23:53;;;;;;;8.93;7.15;;;;;;;26.87;49.43;99011.06;5043376;28;20025;-63
2021/06/09 07:26:20;;;;;;;8.13;7.22;;;;;;;27.34;47.21;99009.97;5043469;28;20032;-63
2021/06/09 07:28:57;;;;;;;8.55;6.95;;;;;;;27.47;47.73;99008.84;5046944;28;20324;-63
2021/06/09 07:31:26;;;;;;;7.15;6.45;;;;;;;27.99;48.15;99018.94;5047249;28;20205;-63
2021/06/09 07:33:52;;;;;;;7.03;6.32;;;;;;;28.35;47.00;99022.09;5046904;28;20151;-63
2021/06/09 07:36:23;;;;;;;7.25;6.40;;;;;;;27.65;46.35;99023.56;5046872;28;20320;-63
2021/06/09 07:38:55;;;;;;;6.85;5.80;;;;;;;27.88;47.69;99025.28;5046909;28;20204;-63
2021/06/09 07:41:25;;;;;;;8.68;5.60;;;;;;;28.59;46.21;99030.00;5046571;28;20109;-63
2021/06/09 07:43:53;;;;;;;8.43;7.13;;;;;;;28.51;46.60;99025.22;5047064;28;20021;-63
2021/06/09 07:46:27;;;;;;;7.53;6.65;;;;;;;28.67;44.99;99030.22;5046728;28;20027;-63
2021/06/09 07:48:54;;;;;;;11.18;6.20;;;;;;;28.88;46.81;99023.78;5046549;28;20067;-63
2021/06/09 07:51:20;;;;;;;10.18;6.45;;;;;;;28.77;46.14;99026.56;5046555;28;20029;-63
2021/06/09 07:53:48;;;;;;;6.57;5.88;;;;;;;29.44;45.17;99024.19;5046543;28;20025;-63
2021/06/09 07:56:15;;;;;;;7.15;6.45;;;;;;;29.68;44.68;99018.44;5046462;28;20029;-63
2021/06/09 07:58:42;;;;;;;9.48;6.45;;;;;;;29.44;45.48;99026.03;5046426;28;20080;-63
2021/06/09 08:01:08;;;;;;;7.47;6.55;;;;;;;29.65;46.04;99018.72;5046384;28;20386;-64
2021/06/09 08:03:36;;;;;;;7.45;6.07;;;;;;;30.21;44.35;99017.94;5046363;28;20021;-64
2021/06/09 08:06:03;;;;;;;7.25;6.53;;;;;;;29.87;42.22;99021.19;5046258;28;20057;-63
2021/06/09 08:08:30;;;;;;;7.95;6.28;;;;;;;29.84;43.30;99021.47;5046171;28;20030;-63
2021/06/09 08:10:55;;;;;;;7.40;5.43;;;;;;;30.22;42.33;99018.81;5046232;28;20025;-63
2021/06/09 08:13:21;;;;;;;6.78;6.03;;;;;;;30.37;40.29;99022.81;5046160;28;20032;-63
2021/06/09 08:15:47;;;;;;;8.02;6.70;;;;;;;30.36;40.60;99023.81;5046170;28;20036;-63
2021/06/09 08:18:13;;;;;;;7.13;6.43;;;;;;;30.45;40.33;99018.38;5046083;28;20017;-64
2021/06/09 08:21:04;;;;;;;5.53;5.03;;;;;;;30.23;43.00;99009.66;5046285;28;20029;-64
2021/06/09 08:23:30;;;;;;;6.30;5.00;;;;;;;30.74;40.16;99004.75;5032968;28;20043;-64
2021/06/09 08:25:56;;;;;;;6.85;5.57;;;;;;;30.68;40.39;99005.31;5045928;28;20028;-64
2021/06/09 08:28:22;;;;;;;8.15;5.78;;;;;;;30.64;40.10;99002.06;5045804;28;20026;-64
2021/06/09 08:30:47;;;;;;;7.38;4.70;;;;;;;30.79;39.91;98997.03;5045891;28;20044;-64
2021/06/09 08:33:13;;;;;;;6.20;5.03;;;;;;;30.34;39.82;99006.81;5045798;28;20135;-64
2021/06/09 08:35:38;;;;;;;5.97;5.07;;;;;;;30.87;39.41;99008.88;5045775;28;20216;-63
2021/06/09 08:38:04;;;;;;;8.27;5.05;;;;;;;30.79;37.97;98997.03;5045608;28;20044;-63
2021/06/09 08:40:31;;;;;;;8.90;5.63;;;;;;;30.77;39.27;99004.47;5045525;28;20032;-64
2021/06/09 08:42:57;;;;;;;6.88;5.13;;;;;;;30.59;38.41;99009.78;5045600;28;20059;-64
2021/06/09 08:45:23;;;;;;;7.28;5.50;;;;;;;30.83;38.13;99004.75;5045578;28;20316;-64
2021/06/09 08:47:50;;;;;;;7.60;4.95;;;;;;;31.06;38.16;99010.69;5045476;28;20031;-64
2021/06/09 08:50:18;;;;;;;7.22;5.28;;;;;;;30.82;38.58;99018.50;5045505;28;20033;-64
2021/06/09 08:52:46;;;;;;;7.30;5.60;;;;;;;30.45;37.52;99015.66;5045438;28;20151;-63
2021/06/09 08:55:12;;;;;;;8.07;4.82;;;;;;;30.66;38.40;99012.78;5045659;28;20058;-63
2021/06/09 08:57:39;;;;;;;6.32;5.65;;;;;;;30.23;38.13;99009.66;5045342;28;20013;-63
2021/06/09 09:00:06;;;;;;;7.00;5.70;;;;;;;30.74;39.44;99004.75;5045298;28;20021;-63
2021/06/09 09:02:31;;;;;;;6.60;5.55;;;;;;;31.04;37.91;99002.66;5045143;28;20096;-63
2021/06/09 09:04:57;;;;;;;6.43;5.57;;;;;;;31.38;38.73;99004.88;5045230;28;20212;-64
2021/06/09 09:07:27;;;;;;;6.70;5.53;;;;;;;31.22;37.56;99000.00;5045351;28;20244;-64
2021/06/09 09:09:56;;;;;;;8.10;5.90;;;;;;;31.35;35.38;98995.13;5027492;28;20025;-64
2021/06/09 09:12:21;;;;;;;8.30;6.28;;;;;;;31.77;34.16;99007.22;5045059;28;20091;-64
2021/06/09 09:14:47;;;;;;;6.88;5.80;;;;;;;31.85;32.50;98999.16;5044999;28;20312;-64
2021/06/09 09:17:13;;;;;;;7.15;5.93;;;;;;;31.85;32.42;98996.44;5045047;28;20028;-64
2021/06/09 09:19:43;;;;;;;10.15;6.38;;;;;;;31.99;34.14;98998.63;5044926;28;20025;-64
2021/06/09 09:22:17;;;;;;;8.95;5.60;;;;;;;31.94;33.40;98995.50;5044866;28;20036;-64
2021/06/09 09:24:46;;;;;;;9.95;5.47;;;;;;;31.94;34.85;98995.50;5044811;28;20068;-64
2021/06/09 09:27:18;;;;;;;7.93;5.55;;;;;;;31.67;34.21;99000.13;5044717;28;20087;-64
2021/06/09 09:30:03;;;;;;;9.40;5.32;;;;;;;31.77;34.39;99001.78;5044735;28;20033;-64
2021/06/09 09:32:29;;;;;;;10.35;5.50;;;;;;;32.18;30.57;99000.34;5044959;28;20021;-64
2021/06/09 09:35:13;;;;;;;7.88;4.85;;;;;;;32.55;30.59;99009.22;5027006;28;20232;-64
2021/06/09 09:37:39;;;;;;;7.75;4.75;;;;;;;32.18;32.32;99009.38;5044641;28;20025;-64
2021/06/09 09:40:15;;;;;;;7.70;4.85;;;;;;;31.62;34.26;98999.69;5044411;28;20045;-64
2021/06/09 09:42:48;;;;;;;8.10;5.70;;;;;;;31.80;32.53;99006.91;5044713;28;20028;-64
2021/06/09 09:45:15;;;;;;;5.78;5.18;;;;;;;30.98;36.45;99002.41;5026874;28;20025;-64
2021/06/09 09:47:41;;;;;;;9.63;5.65;;;;;;;31.93;34.80;98996.53;5044358;28;20029;-63
2021/06/09 09:50:07;;;;;;;5.93;4.85;;;;;;;32.13;33.86;99000.81;5043889;28;20025;-63
2021/06/09 09:52:48;;;;;;;6.70;5.28;;;;;;;32.40;33.32;99005.34;5044585;28;20048;-63
2021/06/09 09:55:15;;;;;;;7.25;5.15;;;;;;;32.06;33.35;98997.00;5044569;28;20021;-63
2021/06/09 09:57:41;;;;;;;5.63;3.95;;;;;;;32.47;31.74;98990.94;5044241;28;20028;-63
2021/06/09 10:00:07;;;;;;;5.80;3.72;;;;;;;32.01;31.65;98999.31;5044221;28;20025;-63
2021/06/09 10:02:34;;;;;;;4.43;4.00;;;;;;;32.10;32.33;98997.53;5044438;28;20040;-63
2021/06/09 10:05:10;;;;;;;5.75;4.68;;;;;;;32.19;32.93;99000.19;5044200;28;20036;-63
2021/06/09 10:07:59;;;;;;;6.47;4.60;;;;;;;32.08;34.19;99003.13;5044241;28;20033;-63
2021/06/09 10:10:26;;;;;;;10.27;4.78;;;;;;;32.30;34.64;98999.94;5043925;28;20092;-63
2021/06/09 10:13:15;;;;;;;6.53;4.80;;;;;;;31.58;35.81;98991.00;5043995;28;20044;-63
2021/06/09 10:15:48;;;;;;;5.68;4.78;;;;;;;32.25;36.17;98988.66;5044298;28;20271;-63
2021/06/09 10:18:20;;;;;;;6.80;4.80;;;;;;;32.07;32.27;98987.81;5044089;28;20316;-63
2021/06/09 10:20:48;;;;;;;8.68;4.65;;;;;;;31.74;35.34;98984.88;5043998;28;20044;-63
2021/06/09 10:23:37;;;;;;;4.97;4.45;;;;;;;31.83;33.81;98984.84;5043926;28;20037;-63
2021/06/09 10:26:14;;;;;;;6.78;4.78;;;;;;;31.14;36.88;98989.03;5043876;28;20086;-63
2021/06/09 10:29:02;;;;;;;4.68;3.42;;;;;;;31.72;31.12;98982.31;5043830;28;20021;-63
2021/06/09 10:31:29;;;;;;;4.53;3.75;;;;;;;31.91;32.43;98993.09;5044113;28;20088;-63
2021/06/09 10:33:56;;;;;;;7.10;4.22;;;;;;;30.84;33.83;98983.84;5044096;28;20026;-63
2021/06/09 10:36:22;;;;;;;5.75;4.60;;;;;;;30.63;33.86;98983.16;5043826;28;20276;-63
2021/06/09 10:38:48;;;;;;;10.57;4.47;;;;;;;30.79;35.74;98987.03;5043814;28;20028;-63
2021/06/09 10:41:14;;;;;;;11.55;4.15;;;;;;;31.07;32.03;98985.22;5043556;28;20289;-63
2021/06/09 10:43:42;;;;;;;5.20;4.10;;;;;;;30.87;36.06;98972.69;5043906;28;20021;-63
2021/06/09 10:46:10;;;;;;;7.43;4.38;;;;;;;31.12;34.05;98972.00;5043468;28;20140;-63
2021/06/09 10:48:38;;;;;;;10.25;4.93;;;;;;;31.38;32.66;98973.06;5043643;28;20094;-63
2021/06/09 10:51:07;;;;;;;5.60;4.45;;;;;;;30.56;35.78;98987.47;5043681;28;20057;-63
2021/06/09 10:53:35;;;;;;;5.68;4.07;;;;;;;30.79;35.58;98981.59;5043678;28;20339;-63
2021/06/09 10:56:00;;;;;;;7.13;4.43;;;;;;;29.79;35.41;98983.03;5043604;28;20080;-63
2021/06/09 10:58:26;;;;;;;5.80;4.72;;;;;;;30.21;34.28;98985.34;5025966;28;20018;-63
2021/06/09 11:00:56;;;;;;;7.82;4.32;;;;;;;29.82;34.14;98982.75;5043550;28;20022;-63
2021/06/09 11:03:22;;;;;;;5.20;4.63;;;;;;;29.95;34.78;98977.88;5047026;28;20351;-63
2021/06/09 11:05:48;;;;;;;6.95;4.30;;;;;;;30.35;35.21;98975.91;5047457;28;20089;-63
2021/06/09 11:08:16;;;;;;;7.47;4.40;;;;;;;30.12;35.37;98979.91;5047385;28;20029;-63
2021/06/09 11:10:48;;;;;;;4.75;4.25;;;;;;;29.91;38.57;98981.91;5047621;28;20096;-63
2021/06/09 11:13:45;;;;;;;4.78;3.67;;;;;;;30.50;36.22;98977.19;5047573;28;20029;-63
2021/06/09 11:16:16;;;;;;;5.35;4.07;;;;;;;30.66;36.99;98977.44;5046063;28;20104;-63
2021/06/09 11:18:45;;;;;;;6.80;5.20;;;;;;;30.60;36.44;98967.16;5047232;28;20081;-63
2021/06/09 11:21:15;;;;;;;5.43;4.90;;;;;;;30.40;35.72;98973.63;5029499;28;20100;-63
2021/06/09 11:23:42;;;;;;;6.95;4.40;;;;;;;30.26;36.12;98976.78;5047088;28;20025;-63
2021/06/09 11:26:30;;;;;;;6.22;4.43;;;;;;;29.92;36.49;98973.63;5047028;28;20026;-63
2021/06/09 11:28:56;;;;;;;5.90;4.40;;;;;;;30.11;36.19;98964.59;5047250;28;20025;-63
2021/06/09 11:31:26;;;;;;;6.40;4.63;;;;;;;29.93;36.73;98958.19;5047243;28;20332;-63
2021/06/09 11:33:53;;;;;;;7.18;4.80;;;;;;;29.74;36.83;98961.72;5047556;28;20269;-63
2021/06/09 11:36:19;;;;;;;6.75;5.15;;;;;;;29.30;40.04;98959.50;5046878;28;20340;-63
2021/06/09 11:38:47;;;;;;;5.07;4.28;;;;;;;28.95;41.58;98943.63;5046855;28;20013;-63